You are not logged in, Click here to log in
ICAO: RJNT Country: 日本富山縣富山市
Latitude: 36.6433 Longitude: 137.19
Total Arrivals: 21 Total Departures: 20
Latest Arrival: NH621 (RCTP-RJNT)信益. 劉 Latest Departure: BR17E3 (RJNT-RCTP)信益. 劉
Scenery:
METAR : RJNT 171200Z 01005KT 9999 FEW030 BKN040 20/13 Q1014

富山空港TOY